sensor_id;sensor_type;location;lat;lon;timestamp;P1;durP1;ratioP1;P2;durP2;ratioP2
60919;SDS011;59039;52.108;19.942;2023-02-15T00:00:50;105.30;;;37.40;;
60919;SDS011;59039;52.108;19.942;2023-02-15T00:03:35;98.30;;;35.80;;
60919;SDS011;59039;52.108;19.942;2023-02-15T00:06:06;96.90;;;35.30;;
60919;SDS011;59039;52.108;19.942;2023-02-15T00:08:34;98.30;;;36.20;;
60919;SDS011;59039;52.108;19.942;2023-02-15T00:11:20;99.00;;;33.70;;
60919;SDS011;59039;52.108;19.942;2023-02-15T00:13:49;92.40;;;34.60;;
60919;SDS011;59039;52.108;19.942;2023-02-15T00:16:14;88.90;;;34.40;;
60919;SDS011;59039;52.108;19.942;2023-02-15T00:19:03;99.60;;;35.10;;
60919;SDS011;59039;52.108;19.942;2023-02-15T00:21:30;98.60;;;35.70;;
60919;SDS011;59039;52.108;19.942;2023-02-15T00:23:57;90.80;;;33.90;;
60919;SDS011;59039;52.108;19.942;2023-02-15T00:26:24;90.60;;;33.20;;
60919;SDS011;59039;52.108;19.942;2023-02-15T00:28:49;88.60;;;33.40;;
60919;SDS011;59039;52.108;19.942;2023-02-15T00:31:20;100.40;;;33.90;;
60919;SDS011;59039;52.108;19.942;2023-02-15T00:34:05;92.40;;;34.80;;
60919;SDS011;59039;52.108;19.942;2023-02-15T00:39:27;102.00;;;36.20;;
60919;SDS011;59039;52.108;19.942;2023-02-15T00:42:08;104.20;;;36.50;;
60919;SDS011;59039;52.108;19.942;2023-02-15T00:44:39;109.70;;;36.70;;
60919;SDS011;59039;52.108;19.942;2023-02-15T00:47:10;108.40;;;37.90;;
60919;SDS011;59039;52.108;19.942;2023-02-15T00:49:38;109.20;;;40.20;;
60919;SDS011;59039;52.108;19.942;2023-02-15T00:52:11;113.10;;;41.70;;
60919;SDS011;59039;52.108;19.942;2023-02-15T00:54:42;121.20;;;44.40;;
60919;SDS011;59039;52.108;19.942;2023-02-15T00:57:28;124.70;;;43.10;;
60919;SDS011;59039;52.108;19.942;2023-02-15T01:02:30;113.90;;;41.20;;
60919;SDS011;59039;52.108;19.942;2023-02-15T01:05:01;119.40;;;41.50;;
60919;SDS011;59039;52.108;19.942;2023-02-15T01:07:26;126.70;;;44.00;;
60919;SDS011;59039;52.108;19.942;2023-02-15T01:13:11;129.90;;;43.10;;
60919;SDS011;59039;52.108;19.942;2023-02-15T01:15:44;116.10;;;40.90;;
60919;SDS011;59039;52.108;19.942;2023-02-15T01:18:38;114.80;;;40.00;;
60919;SDS011;59039;52.108;19.942;2023-02-15T01:21:25;120.20;;;41.10;;
60919;SDS011;59039;52.108;19.942;2023-02-15T01:24:03;119.40;;;39.60;;
60919;SDS011;59039;52.108;19.942;2023-02-15T01:26:35;118.90;;;42.10;;
60919;SDS011;59039;52.108;19.942;2023-02-15T01:32:10;125.50;;;42.50;;
60919;SDS011;59039;52.108;19.942;2023-02-15T01:40:15;133.10;;;43.90;;
60919;SDS011;59039;52.108;19.942;2023-02-15T01:42:43;138.10;;;46.10;;
60919;SDS011;59039;52.108;19.942;2023-02-15T01:48:24;127.80;;;43.20;;
60919;SDS011;59039;52.108;19.942;2023-02-15T01:51:13;125.10;;;44.30;;
60919;SDS011;59039;52.108;19.942;2023-02-15T01:53:56;115.90;;;39.30;;
60919;SDS011;59039;52.108;19.942;2023-02-15T01:56:46;109.10;;;37.10;;
60919;SDS011;59039;52.108;19.942;2023-02-15T01:59:24;106.80;;;37.00;;
60919;SDS011;59039;52.108;19.942;2023-02-15T02:01:54;100.50;;;35.90;;
60919;SDS011;59039;52.108;19.942;2023-02-15T02:07:35;89.20;;;31.90;;
60919;SDS011;59039;52.108;19.942;2023-02-15T02:10:12;88.40;;;33.30;;
60919;SDS011;59039;52.108;19.942;2023-02-15T02:12:46;86.00;;;32.10;;
60919;SDS011;59039;52.108;19.942;2023-02-15T02:22:01;97.50;;;32.80;;
60919;SDS011;59039;52.108;19.942;2023-02-15T02:24:58;106.90;;;38.80;;
60919;SDS011;59039;52.108;19.942;2023-02-15T02:28:50;127.70;;;38.80;;
60919;SDS011;59039;52.108;19.942;2023-02-15T02:50:33;99.50;;;34.90;;
60919;SDS011;59039;52.108;19.942;2023-02-15T02:53:29;108.40;;;34.20;;
60919;SDS011;59039;52.108;19.942;2023-02-15T03:02:46;102.00;;;33.50;;
60919;SDS011;59039;52.108;19.942;2023-02-15T03:05:10;95.50;;;34.60;;
60919;SDS011;59039;52.108;19.942;2023-02-15T03:11:02;98.00;;;32.30;;
60919;SDS011;59039;52.108;19.942;2023-02-15T03:13:45;96.60;;;31.20;;
60919;SDS011;59039;52.108;19.942;2023-02-15T03:16:23;92.60;;;32.10;;
60919;SDS011;59039;52.108;19.942;2023-02-15T03:19:09;93.10;;;33.30;;
60919;SDS011;59039;52.108;19.942;2023-02-15T03:24:55;99.50;;;32.90;;
60919;SDS011;59039;52.108;19.942;2023-02-15T03:30:20;85.50;;;31.40;;
60919;SDS011;59039;52.108;19.942;2023-02-15T03:33:12;86.70;;;31.10;;
60919;SDS011;59039;52.108;19.942;2023-02-15T03:36:01;99.70;;;31.80;;
60919;SDS011;59039;52.108;19.942;2023-02-15T03:39:01;93.80;;;32.10;;
60919;SDS011;59039;52.108;19.942;2023-02-15T03:45:33;85.20;;;29.90;;
60919;SDS011;59039;52.108;19.942;2023-02-15T03:51:25;107.90;;;34.90;;
60919;SDS011;59039;52.108;19.942;2023-02-15T03:57:01;89.50;;;32.70;;
60919;SDS011;59039;52.108;19.942;2023-02-15T04:02:23;99.30;;;31.40;;
60919;SDS011;59039;52.108;19.942;2023-02-15T04:10:55;103.00;;;34.60;;
60919;SDS011;59039;52.108;19.942;2023-02-15T04:18:55;103.50;;;33.70;;
60919;SDS011;59039;52.108;19.942;2023-02-15T04:21:26;94.50;;;34.30;;
60919;SDS011;59039;52.108;19.942;2023-02-15T04:24:14;113.20;;;36.70;;
60919;SDS011;59039;52.108;19.942;2023-02-15T04:32:17;100.70;;;36.00;;
60919;SDS011;59039;52.108;19.942;2023-02-15T04:34:56;116.50;;;39.30;;
60919;SDS011;59039;52.108;19.942;2023-02-15T04:37:34;119.50;;;37.40;;
60919;SDS011;59039;52.108;19.942;2023-02-15T04:40:22;101.20;;;35.80;;
60919;SDS011;59039;52.108;19.942;2023-02-15T04:43:07;104.60;;;34.50;;
60919;SDS011;59039;52.108;19.942;2023-02-15T04:45:43;104.30;;;35.90;;
60919;SDS011;59039;52.108;19.942;2023-02-15T04:48:18;105.30;;;36.60;;
60919;SDS011;59039;52.108;19.942;2023-02-15T04:51:09;107.20;;;36.20;;
60919;SDS011;59039;52.108;19.942;2023-02-15T04:53:43;114.80;;;38.90;;
60919;SDS011;59039;52.108;19.942;2023-02-15T04:56:17;103.10;;;35.80;;
60919;SDS011;59039;52.108;19.942;2023-02-15T04:58:44;122.40;;;37.10;;
60919;SDS011;59039;52.108;19.942;2023-02-15T05:01:43;112.10;;;37.80;;
60919;SDS011;59039;52.108;19.942;2023-02-15T05:04:28;117.00;;;38.40;;
60919;SDS011;59039;52.108;19.942;2023-02-15T05:07:19;106.50;;;37.50;;
60919;SDS011;59039;52.108;19.942;2023-02-15T05:09:55;113.70;;;37.20;;
60919;SDS011;59039;52.108;19.942;2023-02-15T05:12:28;101.60;;;35.00;;
60919;SDS011;59039;52.108;19.942;2023-02-15T05:15:07;119.00;;;36.40;;
60919;SDS011;59039;52.108;19.942;2023-02-15T05:17:55;106.40;;;37.10;;
60919;SDS011;59039;52.108;19.942;2023-02-15T05:20:42;135.80;;;44.10;;
60919;SDS011;59039;52.108;19.942;2023-02-15T05:26:29;130.90;;;42.00;;
60919;SDS011;59039;52.108;19.942;2023-02-15T05:32:05;126.50;;;40.50;;
60919;SDS011;59039;52.108;19.942;2023-02-15T05:37:50;112.10;;;38.50;;
60919;SDS011;59039;52.108;19.942;2023-02-15T05:40:29;113.80;;;38.40;;
60919;SDS011;59039;52.108;19.942;2023-02-15T05:43:17;109.00;;;39.80;;
60919;SDS011;59039;52.108;19.942;2023-02-15T05:45:55;114.70;;;39.40;;
60919;SDS011;59039;52.108;19.942;2023-02-15T05:48:26;113.70;;;38.80;;
60919;SDS011;59039;52.108;19.942;2023-02-15T05:53:50;113.00;;;40.30;;
60919;SDS011;59039;52.108;19.942;2023-02-15T05:56:19;119.80;;;39.90;;
60919;SDS011;59039;52.108;19.942;2023-02-15T05:58:48;118.80;;;40.80;;
60919;SDS011;59039;52.108;19.942;2023-02-15T06:01:33;116.80;;;40.40;;
60919;SDS011;59039;52.108;19.942;2023-02-15T06:07:00;126.30;;;42.60;;
60919;SDS011;59039;52.108;19.942;2023-02-15T06:09:28;143.80;;;48.20;;
60919;SDS011;59039;52.108;19.942;2023-02-15T06:12:21;203.60;;;64.40;;
60919;SDS011;59039;52.108;19.942;2023-02-15T06:14:47;192.50;;;55.10;;
60919;SDS011;59039;52.108;19.942;2023-02-15T06:19:56;212.20;;;58.40;;
60919;SDS011;59039;52.108;19.942;2023-02-15T06:22:48;205.10;;;54.80;;
60919;SDS011;59039;52.108;19.942;2023-02-15T06:25:32;177.70;;;53.90;;
60919;SDS011;59039;52.108;19.942;2023-02-15T06:31:06;129.90;;;49.00;;
60919;SDS011;59039;52.108;19.942;2023-02-15T06:33:32;140.20;;;48.80;;
60919;SDS011;59039;52.108;19.942;2023-02-15T06:36:07;143.00;;;49.30;;
60919;SDS011;59039;52.108;19.942;2023-02-15T06:38:58;130.90;;;47.70;;
60919;SDS011;59039;52.108;19.942;2023-02-15T06:44:45;184.10;;;57.30;;
60919;SDS011;59039;52.108;19.942;2023-02-15T06:47:44;151.10;;;51.90;;
60919;SDS011;59039;52.108;19.942;2023-02-15T06:50:18;158.20;;;50.80;;
60919;SDS011;59039;52.108;19.942;2023-02-15T06:53:03;143.70;;;49.20;;
60919;SDS011;59039;52.108;19.942;2023-02-15T06:55:36;180.70;;;66.10;;
60919;SDS011;59039;52.108;19.942;2023-02-15T06:58:07;151.10;;;56.10;;
60919;SDS011;59039;52.108;19.942;2023-02-15T07:01:03;146.10;;;53.60;;
60919;SDS011;59039;52.108;19.942;2023-02-15T07:12:05;129.20;;;47.50;;
60919;SDS011;59039;52.108;19.942;2023-02-15T07:14:42;124.00;;;46.10;;
60919;SDS011;59039;52.108;19.942;2023-02-15T07:17:10;119.10;;;41.50;;
60919;SDS011;59039;52.108;19.942;2023-02-15T07:19:49;97.80;;;37.10;;
60919;SDS011;59039;52.108;19.942;2023-02-15T07:22:25;89.90;;;35.20;;
60919;SDS011;59039;52.108;19.942;2023-02-15T07:24:53;89.30;;;36.50;;
60919;SDS011;59039;52.108;19.942;2023-02-15T07:30:40;87.50;;;36.50;;
60919;SDS011;59039;52.108;19.942;2023-02-15T07:33:18;99.80;;;38.60;;
60919;SDS011;59039;52.108;19.942;2023-02-15T07:36:06;97.60;;;41.40;;
60919;SDS011;59039;52.108;19.942;2023-02-15T07:38:37;114.50;;;41.10;;
60919;SDS011;59039;52.108;19.942;2023-02-15T07:44:15;109.80;;;42.30;;
60919;SDS011;59039;52.108;19.942;2023-02-15T07:46:43;114.50;;;42.40;;
60919;SDS011;59039;52.108;19.942;2023-02-15T07:49:11;120.70;;;47.40;;
60919;SDS011;59039;52.108;19.942;2023-02-15T07:52:00;161.90;;;53.20;;
60919;SDS011;59039;52.108;19.942;2023-02-15T07:57:21;104.50;;;39.40;;
60919;SDS011;59039;52.108;19.942;2023-02-15T08:00:07;112.70;;;43.40;;
60919;SDS011;59039;52.108;19.942;2023-02-15T08:02:32;115.10;;;44.10;;
60919;SDS011;59039;52.108;19.942;2023-02-15T08:05:18;88.90;;;37.10;;
60919;SDS011;59039;52.108;19.942;2023-02-15T08:10:56;108.20;;;42.30;;
60919;SDS011;59039;52.108;19.942;2023-02-15T08:20:08;107.90;;;36.10;;
60919;SDS011;59039;52.108;19.942;2023-02-15T08:22:42;99.40;;;37.40;;
60919;SDS011;59039;52.108;19.942;2023-02-15T08:25:11;102.30;;;40.60;;
60919;SDS011;59039;52.108;19.942;2023-02-15T08:30:42;114.70;;;41.90;;
60919;SDS011;59039;52.108;19.942;2023-02-15T08:36:33;114.10;;;43.90;;
60919;SDS011;59039;52.108;19.942;2023-02-15T08:38:59;94.30;;;38.40;;
60919;SDS011;59039;52.108;19.942;2023-02-15T08:41:33;102.70;;;40.30;;
60919;SDS011;59039;52.108;19.942;2023-02-15T08:47:08;128.50;;;50.80;;
60919;SDS011;59039;52.108;19.942;2023-02-15T08:49:53;130.50;;;49.70;;
60919;SDS011;59039;52.108;19.942;2023-02-15T08:52:18;146.00;;;56.10;;
60919;SDS011;59039;52.108;19.942;2023-02-15T08:54:46;126.80;;;50.40;;
60919;SDS011;59039;52.108;19.942;2023-02-15T08:57:15;115.40;;;45.90;;
60919;SDS011;59039;52.108;19.942;2023-02-15T08:59:50;113.50;;;40.90;;
60919;SDS011;59039;52.108;19.942;2023-02-15T09:02:25;114.80;;;44.40;;
60919;SDS011;59039;52.108;19.942;2023-02-15T09:07:47;107.60;;;43.30;;
60919;SDS011;59039;52.108;19.942;2023-02-15T09:13:23;97.60;;;36.60;;
60919;SDS011;59039;52.108;19.942;2023-02-15T09:15:49;111.70;;;37.30;;
60919;SDS011;59039;52.108;19.942;2023-02-15T09:18:23;150.90;;;49.30;;
60919;SDS011;59039;52.108;19.942;2023-02-15T09:21:15;122.90;;;42.50;;
60919;SDS011;59039;52.108;19.942;2023-02-15T09:26:29;128.90;;;43.80;;
60919;SDS011;59039;52.108;19.942;2023-02-15T09:29:15;136.90;;;50.70;;
60919;SDS011;59039;52.108;19.942;2023-02-15T09:34:38;111.30;;;41.60;;
60919;SDS011;59039;52.108;19.942;2023-02-15T09:39:51;187.80;;;55.20;;
60919;SDS011;59039;52.108;19.942;2023-02-15T09:42:42;155.00;;;48.90;;
60919;SDS011;59039;52.108;19.942;2023-02-15T09:48:38;134.10;;;46.60;;
60919;SDS011;59039;52.108;19.942;2023-02-15T09:57:55;98.00;;;37.20;;
60919;SDS011;59039;52.108;19.942;2023-02-15T10:12:42;111.80;;;42.30;;
60919;SDS011;59039;52.108;19.942;2023-02-15T10:15:37;166.30;;;52.10;;
60919;SDS011;59039;52.108;19.942;2023-02-15T10:21:17;154.10;;;50.20;;
60919;SDS011;59039;52.108;19.942;2023-02-15T10:23:59;154.60;;;51.70;;
60919;SDS011;59039;52.108;19.942;2023-02-15T10:29:45;124.90;;;43.90;;
60919;SDS011;59039;52.108;19.942;2023-02-15T10:32:29;115.10;;;39.60;;
60919;SDS011;59039;52.108;19.942;2023-02-15T10:38:17;130.90;;;44.80;;
60919;SDS011;59039;52.108;19.942;2023-02-15T10:53:23;153.90;;;52.20;;
60919;SDS011;59039;52.108;19.942;2023-02-15T11:05:33;139.30;;;46.40;;
60919;SDS011;59039;52.108;19.942;2023-02-15T11:08:26;165.00;;;53.30;;
60919;SDS011;59039;52.108;19.942;2023-02-15T11:11:11;149.50;;;49.00;;
60919;SDS011;59039;52.108;19.942;2023-02-15T11:14:02;138.60;;;46.10;;
60919;SDS011;59039;52.108;19.942;2023-02-15T11:16:51;141.70;;;45.30;;
60919;SDS011;59039;52.108;19.942;2023-02-15T11:19:34;158.30;;;50.00;;
60919;SDS011;59039;52.108;19.942;2023-02-15T11:22:12;162.30;;;51.30;;
60919;SDS011;59039;52.108;19.942;2023-02-15T11:24:43;166.00;;;59.40;;
60919;SDS011;59039;52.108;19.942;2023-02-15T11:30:22;153.10;;;47.40;;
60919;SDS011;59039;52.108;19.942;2023-02-15T11:32:58;152.50;;;51.70;;
60919;SDS011;59039;52.108;19.942;2023-02-15T11:41:50;157.20;;;53.10;;
60919;SDS011;59039;52.108;19.942;2023-02-15T11:44:55;219.30;;;75.10;;
60919;SDS011;59039;52.108;19.942;2023-02-15T11:47:24;191.20;;;63.10;;
60919;SDS011;59039;52.108;19.942;2023-02-15T11:49:49;187.80;;;61.20;;
60919;SDS011;59039;52.108;19.942;2023-02-15T11:52:20;166.80;;;61.40;;
60919;SDS011;59039;52.108;19.942;2023-02-15T12:04:06;167.60;;;57.00;;
60919;SDS011;59039;52.108;19.942;2023-02-15T12:10:05;182.20;;;59.90;;
60919;SDS011;59039;52.108;19.942;2023-02-15T12:12:42;188.80;;;62.10;;
60919;SDS011;59039;52.108;19.942;2023-02-15T12:15:31;157.40;;;53.60;;
60919;SDS011;59039;52.108;19.942;2023-02-15T12:21:02;156.80;;;55.40;;
60919;SDS011;59039;52.108;19.942;2023-02-15T12:24:28;134.70;;;46.30;;
60919;SDS011;59039;52.108;19.942;2023-02-15T12:26:45;147.80;;;49.10;;
60919;SDS011;59039;52.108;19.942;2023-02-15T12:32:31;143.90;;;52.40;;
60919;SDS011;59039;52.108;19.942;2023-02-15T12:35:10;135.30;;;49.30;;
60919;SDS011;59039;52.108;19.942;2023-02-15T12:37:55;147.70;;;49.60;;
60919;SDS011;59039;52.108;19.942;2023-02-15T12:40:32;150.90;;;50.40;;
60919;SDS011;59039;52.108;19.942;2023-02-15T12:43:04;192.50;;;71.90;;
60919;SDS011;59039;52.108;19.942;2023-02-15T12:45:41;193.40;;;71.60;;
60919;SDS011;59039;52.108;19.942;2023-02-15T12:48:25;161.20;;;56.70;;
60919;SDS011;59039;52.108;19.942;2023-02-15T12:54:12;197.40;;;69.20;;
60919;SDS011;59039;52.108;19.942;2023-02-15T13:00:03;162.20;;;52.90;;
60919;SDS011;59039;52.108;19.942;2023-02-15T13:03:02;165.30;;;58.00;;
60919;SDS011;59039;52.108;19.942;2023-02-15T13:06:05;163.30;;;52.30;;
60919;SDS011;59039;52.108;19.942;2023-02-15T13:08:32;155.20;;;51.60;;
60919;SDS011;59039;52.108;19.942;2023-02-15T13:14:27;201.30;;;66.30;;
60919;SDS011;59039;52.108;19.942;2023-02-15T13:17:02;164.50;;;55.50;;
60919;SDS011;59039;52.108;19.942;2023-02-15T13:22:08;121.40;;;43.00;;
60919;SDS011;59039;52.108;19.942;2023-02-15T13:24:56;124.40;;;47.00;;
60919;SDS011;59039;52.108;19.942;2023-02-15T13:30:24;212.10;;;69.80;;
60919;SDS011;59039;52.108;19.942;2023-02-15T13:39:21;260.70;;;86.70;;
60919;SDS011;59039;52.108;19.942;2023-02-15T13:47:56;210.10;;;64.20;;
60919;SDS011;59039;52.108;19.942;2023-02-15T13:50:32;133.40;;;45.70;;
60919;SDS011;59039;52.108;19.942;2023-02-15T13:59:39;204.20;;;67.30;;
60919;SDS011;59039;52.108;19.942;2023-02-15T14:08:32;204.10;;;66.10;;
60919;SDS011;59039;52.108;19.942;2023-02-15T14:11:21;168.60;;;55.80;;
60919;SDS011;59039;52.108;19.942;2023-02-15T14:17:03;165.60;;;57.90;;
60919;SDS011;59039;52.108;19.942;2023-02-15T14:19:53;172.50;;;60.70;;
60919;SDS011;59039;52.108;19.942;2023-02-15T14:35:48;170.70;;;55.20;;
60919;SDS011;59039;52.108;19.942;2023-02-15T14:41:53;309.60;;;81.00;;
60919;SDS011;59039;52.108;19.942;2023-02-15T14:44:37;164.00;;;48.70;;
60919;SDS011;59039;52.108;19.942;2023-02-15T14:47:34;154.40;;;52.70;;
60919;SDS011;59039;52.108;19.942;2023-02-15T14:50:51;155.60;;;53.20;;
60919;SDS011;59039;52.108;19.942;2023-02-15T14:56:25;138.50;;;45.70;;
60919;SDS011;59039;52.108;19.942;2023-02-15T14:58:57;137.50;;;46.10;;
60919;SDS011;59039;52.108;19.942;2023-02-15T15:01:36;244.60;;;70.40;;
60919;SDS011;59039;52.108;19.942;2023-02-15T15:04:11;358.00;;;94.20;;
60919;SDS011;59039;52.108;19.942;2023-02-15T15:07:37;353.30;;;86.90;;
60919;SDS011;59039;52.108;19.942;2023-02-15T15:13:01;297.40;;;78.60;;
60919;SDS011;59039;52.108;19.942;2023-02-15T15:16:23;255.10;;;73.10;;
60919;SDS011;59039;52.108;19.942;2023-02-15T15:22:05;204.90;;;68.20;;
60919;SDS011;59039;52.108;19.942;2023-02-15T15:25:00;208.90;;;74.10;;
60919;SDS011;59039;52.108;19.942;2023-02-15T15:36:44;220.90;;;78.00;;
60919;SDS011;59039;52.108;19.942;2023-02-15T15:42:48;182.80;;;61.40;;
60919;SDS011;59039;52.108;19.942;2023-02-15T15:45:37;195.70;;;70.40;;
60919;SDS011;59039;52.108;19.942;2023-02-15T15:51:24;189.80;;;67.10;;
60919;SDS011;59039;52.108;19.942;2023-02-15T15:53:58;174.20;;;64.40;;
60919;SDS011;59039;52.108;19.942;2023-02-15T15:56:41;179.20;;;64.40;;
60919;SDS011;59039;52.108;19.942;2023-02-15T15:59:29;160.30;;;56.50;;
60919;SDS011;59039;52.108;19.942;2023-02-15T16:02:06;167.20;;;59.90;;
60919;SDS011;59039;52.108;19.942;2023-02-15T16:05:05;214.40;;;71.30;;
60919;SDS011;59039;52.108;19.942;2023-02-15T16:07:34;256.30;;;83.60;;
60919;SDS011;59039;52.108;19.942;2023-02-15T16:10:27;258.50;;;81.20;;
60919;SDS011;59039;52.108;19.942;2023-02-15T16:13:05;242.40;;;72.70;;
60919;SDS011;59039;52.108;19.942;2023-02-15T16:18:44;268.20;;;77.90;;
60919;SDS011;59039;52.108;19.942;2023-02-15T16:21:21;274.70;;;82.60;;
60919;SDS011;59039;52.108;19.942;2023-02-15T16:24:24;278.10;;;80.50;;
60919;SDS011;59039;52.108;19.942;2023-02-15T16:33:22;256.40;;;72.00;;
60919;SDS011;59039;52.108;19.942;2023-02-15T16:35:57;176.00;;;49.50;;
60919;SDS011;59039;52.108;19.942;2023-02-15T16:41:12;165.00;;;50.10;;
60919;SDS011;59039;52.108;19.942;2023-02-15T16:43:41;138.60;;;44.90;;
60919;SDS011;59039;52.108;19.942;2023-02-15T16:46:32;143.30;;;49.10;;
60919;SDS011;59039;52.108;19.942;2023-02-15T16:49:02;142.40;;;50.10;;
60919;SDS011;59039;52.108;19.942;2023-02-15T16:51:39;158.20;;;53.30;;
60919;SDS011;59039;52.108;19.942;2023-02-15T16:57:17;195.70;;;68.00;;
60919;SDS011;59039;52.108;19.942;2023-02-15T17:00:07;215.80;;;77.00;;
60919;SDS011;59039;52.108;19.942;2023-02-15T17:03:39;184.30;;;62.50;;
60919;SDS011;59039;52.108;19.942;2023-02-15T17:05:49;178.90;;;63.50;;
60919;SDS011;59039;52.108;19.942;2023-02-15T17:08:29;194.50;;;69.60;;
60919;SDS011;59039;52.108;19.942;2023-02-15T17:16:43;206.30;;;82.00;;
60919;SDS011;59039;52.108;19.942;2023-02-15T17:19:27;193.00;;;70.50;;
60919;SDS011;59039;52.108;19.942;2023-02-15T17:24:43;145.20;;;52.90;;
60919;SDS011;59039;52.108;19.942;2023-02-15T17:27:21;184.30;;;62.50;;
60919;SDS011;59039;52.108;19.942;2023-02-15T17:32:58;180.40;;;60.50;;
60919;SDS011;59039;52.108;19.942;2023-02-15T17:35:43;185.60;;;63.50;;
60919;SDS011;59039;52.108;19.942;2023-02-15T17:38:17;178.90;;;58.60;;
60919;SDS011;59039;52.108;19.942;2023-02-15T17:43:40;183.00;;;58.40;;
60919;SDS011;59039;52.108;19.942;2023-02-15T17:46:09;205.30;;;60.50;;
60919;SDS011;59039;52.108;19.942;2023-02-15T17:51:37;179.50;;;54.20;;
60919;SDS011;59039;52.108;19.942;2023-02-15T17:54:08;179.80;;;57.00;;
60919;SDS011;59039;52.108;19.942;2023-02-15T17:56:57;187.00;;;57.20;;
60919;SDS011;59039;52.108;19.942;2023-02-15T17:59:28;175.10;;;54.80;;
60919;SDS011;59039;52.108;19.942;2023-02-15T18:02:13;177.90;;;53.50;;
60919;SDS011;59039;52.108;19.942;2023-02-15T18:04:49;176.40;;;52.50;;
60919;SDS011;59039;52.108;19.942;2023-02-15T18:07:18;183.90;;;52.90;;
60919;SDS011;59039;52.108;19.942;2023-02-15T18:09:47;189.10;;;55.50;;
60919;SDS011;59039;52.108;19.942;2023-02-15T18:20:41;176.90;;;54.70;;
60919;SDS011;59039;52.108;19.942;2023-02-15T18:23:09;201.50;;;62.10;;
60919;SDS011;59039;52.108;19.942;2023-02-15T18:25:45;212.10;;;65.30;;
60919;SDS011;59039;52.108;19.942;2023-02-15T18:28:28;222.00;;;61.80;;
60919;SDS011;59039;52.108;19.942;2023-02-15T18:33:53;245.10;;;83.80;;
60919;SDS011;59039;52.108;19.942;2023-02-15T18:42:05;207.50;;;64.00;;
60919;SDS011;59039;52.108;19.942;2023-02-15T18:44:46;211.10;;;66.20;;
60919;SDS011;59039;52.108;19.942;2023-02-15T18:47:19;176.30;;;52.20;;
60919;SDS011;59039;52.108;19.942;2023-02-15T18:49:48;209.20;;;66.40;;
60919;SDS011;59039;52.108;19.942;2023-02-15T18:52:19;230.40;;;69.80;;
60919;SDS011;59039;52.108;19.942;2023-02-15T18:57:58;295.90;;;90.00;;
60919;SDS011;59039;52.108;19.942;2023-02-15T19:00:30;222.20;;;64.20;;
60919;SDS011;59039;52.108;19.942;2023-02-15T19:05:47;153.40;;;49.00;;
60919;SDS011;59039;52.108;19.942;2023-02-15T19:08:17;165.00;;;52.40;;
60919;SDS011;59039;52.108;19.942;2023-02-15T19:10:47;185.10;;;58.60;;
60919;SDS011;59039;52.108;19.942;2023-02-15T19:13:18;162.70;;;52.10;;
60919;SDS011;59039;52.108;19.942;2023-02-15T19:16:03;147.40;;;48.60;;
60919;SDS011;59039;52.108;19.942;2023-02-15T19:18:50;167.90;;;55.80;;
60919;SDS011;59039;52.108;19.942;2023-02-15T19:21:21;173.10;;;53.90;;
60919;SDS011;59039;52.108;19.942;2023-02-15T19:23:50;161.10;;;50.40;;
60919;SDS011;59039;52.108;19.942;2023-02-15T19:26:43;157.80;;;50.50;;
60919;SDS011;59039;52.108;19.942;2023-02-15T19:29:42;168.20;;;54.40;;
60919;SDS011;59039;52.108;19.942;2023-02-15T19:34:45;173.30;;;53.10;;
60919;SDS011;59039;52.108;19.942;2023-02-15T19:40:23;172.60;;;57.10;;
60919;SDS011;59039;52.108;19.942;2023-02-15T19:42:53;171.40;;;58.50;;
60919;SDS011;59039;52.108;19.942;2023-02-15T19:45:30;188.70;;;67.50;;
60919;SDS011;59039;52.108;19.942;2023-02-15T19:48:04;203.30;;;60.50;;
60919;SDS011;59039;52.108;19.942;2023-02-15T19:50:33;199.70;;;62.50;;
60919;SDS011;59039;52.108;19.942;2023-02-15T19:53:00;212.50;;;64.00;;
60919;SDS011;59039;52.108;19.942;2023-02-15T19:55:32;239.30;;;71.70;;
60919;SDS011;59039;52.108;19.942;2023-02-15T19:58:21;236.10;;;67.80;;
60919;SDS011;59039;52.108;19.942;2023-02-15T20:00:49;272.40;;;77.30;;
60919;SDS011;59039;52.108;19.942;2023-02-15T20:03:46;243.90;;;69.10;;
60919;SDS011;59039;52.108;19.942;2023-02-15T20:06:46;249.60;;;70.70;;
60919;SDS011;59039;52.108;19.942;2023-02-15T20:09:21;223.30;;;65.10;;
60919;SDS011;59039;52.108;19.942;2023-02-15T20:11:49;223.00;;;65.50;;
60919;SDS011;59039;52.108;19.942;2023-02-15T20:14:37;230.20;;;66.80;;
60919;SDS011;59039;52.108;19.942;2023-02-15T20:17:31;219.00;;;63.90;;
60919;SDS011;59039;52.108;19.942;2023-02-15T20:20:13;243.70;;;66.10;;
60919;SDS011;59039;52.108;19.942;2023-02-15T20:23:21;259.40;;;68.80;;
60919;SDS011;59039;52.108;19.942;2023-02-15T20:26:10;277.30;;;74.10;;
60919;SDS011;59039;52.108;19.942;2023-02-15T20:28:43;268.00;;;73.60;;
60919;SDS011;59039;52.108;19.942;2023-02-15T20:31:51;274.80;;;71.80;;
60919;SDS011;59039;52.108;19.942;2023-02-15T20:36:51;266.50;;;68.90;;
60919;SDS011;59039;52.108;19.942;2023-02-15T20:42:22;246.20;;;69.40;;
60919;SDS011;59039;52.108;19.942;2023-02-15T20:45:13;215.30;;;60.00;;
60919;SDS011;59039;52.108;19.942;2023-02-15T20:47:52;229.40;;;70.90;;
60919;SDS011;59039;52.108;19.942;2023-02-15T20:53:42;204.10;;;63.60;;
60919;SDS011;59039;52.108;19.942;2023-02-15T20:56:28;197.90;;;63.60;;
60919;SDS011;59039;52.108;19.942;2023-02-15T20:59:20;206.50;;;64.90;;
60919;SDS011;59039;52.108;19.942;2023-02-15T21:02:21;210.00;;;64.90;;
60919;SDS011;59039;52.108;19.942;2023-02-15T21:07:50;192.60;;;56.70;;
60919;SDS011;59039;52.108;19.942;2023-02-15T21:10:39;187.80;;;55.20;;
60919;SDS011;59039;52.108;19.942;2023-02-15T21:13:11;192.70;;;56.80;;
60919;SDS011;59039;52.108;19.942;2023-02-15T21:18:39;198.50;;;61.40;;
60919;SDS011;59039;52.108;19.942;2023-02-15T21:21:20;193.60;;;63.20;;
60919;SDS011;59039;52.108;19.942;2023-02-15T21:24:11;195.80;;;61.50;;
60919;SDS011;59039;52.108;19.942;2023-02-15T21:26:43;224.20;;;69.90;;
60919;SDS011;59039;52.108;19.942;2023-02-15T21:29:25;226.20;;;76.80;;
60919;SDS011;59039;52.108;19.942;2023-02-15T21:34:40;203.90;;;68.60;;
60919;SDS011;59039;52.108;19.942;2023-02-15T21:40:48;198.70;;;60.80;;
60919;SDS011;59039;52.108;19.942;2023-02-15T21:43:54;240.90;;;68.60;;
60919;SDS011;59039;52.108;19.942;2023-02-15T21:46:21;249.20;;;73.60;;
60919;SDS011;59039;52.108;19.942;2023-02-15T21:56:53;236.00;;;68.70;;
60919;SDS011;59039;52.108;19.942;2023-02-15T22:02:34;203.40;;;59.70;;
60919;SDS011;59039;52.108;19.942;2023-02-15T22:05:04;249.90;;;68.80;;
60919;SDS011;59039;52.108;19.942;2023-02-15T22:07:39;282.70;;;69.70;;
60919;SDS011;59039;52.108;19.942;2023-02-15T22:10:20;261.20;;;66.80;;
60919;SDS011;59039;52.108;19.942;2023-02-15T22:12:55;263.00;;;74.10;;